Arcadia, Kansas
Current Conditions -  °F | °C
As of 1:55 PM on Wednesday 17 Dec 2014 (Local Time) from KPTS Reporting Station
Overcast Overcast  
Wind Chill: 25°   Ceiling: 8500
Heat Index: 33°   Visibility: 10mi
Dew Point: 29°   Wind: 9mph
Humidity: 85%   Direction: 110°ESE
Pressure: 30.22"   Gusts: NA
Location:  37.64°N, 94.62°W
Report Text: KPTS 171955Z AUTO 11008KT 10SM SCT050 SCT070 OVC085 01/M02 A3022 RMK AO2 T00061017
Loading
Personal Weather Stations






























Interactive Weather Map New forecast layout! Learn more

10-Day Weather Forecast

Advertisements
Track Severe Weather on mobile